Time,TemperatureF,DewpointF,PressureIn,WindDirection,WindDirectionDegrees,WindSpeedMPH,WindSpeedGustMPH,Humidity,HourlyPrecipIn,Conditions,Clouds,dailyrainin,SoftwareType,DateUTC
2013-06-15 00:01:00,60.7,56.5,29.95,NW,321,2.3,2.3,86,0.00,RA,,0.00,WeatherDisplay:10.37,2013-06-15 04:01:00,
2013-06-15 00:07:00,61.2,56.3,29.95,WNW,282,3.5,3.5,84,0.00,RA,,0.00,WeatherDisplay:10.37,2013-06-15 04:07:00,
2013-06-15 00:12:00,61.5,56.6,29.95,WNW,301,3.0,3.0,84,0.00,,,0.00,WeatherDisplay:10.37,2013-06-15 04:12:00,
2013-06-15 00:17:00,61.8,56.2,29.95,ENE,63,2.3,2.3,82,0.00,,,0.00,WeatherDisplay:10.37,2013-06-15 04:17:00,
2013-06-15 00:22:00,61.9,56.3,29.95,West,262,1.1,0.0,82,0.00,,,0.00,WeatherDisplay:10.37,2013-06-15 04:22:00,
2013-06-15 00:27:00,61.8,55.9,29.96,NW,305,4.6,4.6,81,0.00,,,0.00,WeatherDisplay:10.37,2013-06-15 04:27:00,
2013-06-15 00:32:00,61.9,56.0,29.96,NW,305,2.3,2.3,81,0.00,,,0.00,WeatherDisplay:10.37,2013-06-15 04:32:00,
2013-06-15 00:37:00,61.9,56.0,29.96,WSW,239,2.3,2.3,81,0.00,,,0.00,WeatherDisplay:10.37,2013-06-15 04:37:00,
2013-06-15 00:42:00,61.7,55.8,29.96,West,259,1.0,0.0,81,0.00,,,0.00,WeatherDisplay:10.37,2013-06-15 04:42:00,
2013-06-15 00:47:00,61.5,55.6,29.96,NNW,329,5.8,5.8,81,0.00,,,0.00,WeatherDisplay:10.37,2013-06-15 04:47:00,
2013-06-15 00:52:00,61.4,55.5,29.97,West,264,2.3,2.3,81,0.00,,,0.00,WeatherDisplay:10.37,2013-06-15 04:52:00,
2013-06-15 00:57:00,61.3,55.4,29.97,NNE,18,2.3,2.3,81,0.00,,,0.00,WeatherDisplay:10.37,2013-06-15 04:57:00,
2013-06-15 01:02:00,61.1,55.6,29.97,WSW,256,2.3,0.0,82,0.00,,,0.00,WeatherDisplay:10.37,2013-06-15 05:02:00,
2013-06-15 01:07:00,60.8,55.3,29.97,WSW,250,1.1,0.0,82,0.00,,,0.00,WeatherDisplay:10.37,2013-06-15 05:07:00,
2013-06-15 01:12:00,60.6,55.1,29.97,WNW,297,2.3,2.3,82,0.00,,,0.00,WeatherDisplay:10.37,2013-06-15 05:12:00,
2013-06-15 01:17:00,60.4,55.2,29.97,WSW,241,0.0,0.0,83,0.00,,,0.00,WeatherDisplay:10.37,2013-06-15 05:17:00,
2013-06-15 01:22:00,60.3,54.8,29.97,WSW,243,0.0,0.0,82,0.00,,,0.00,WeatherDisplay:10.37,2013-06-15 05:22:00,
2013-06-15 01:27:00,59.9,55.1,29.97,SSW,201,0.0,0.0,84,0.00,,,0.00,WeatherDisplay:10.37,2013-06-15 05:27:00,
2013-06-15 01:32:00,59.5,54.7,29.97,SSW,201,0.0,0.0,84,0.00,,,0.00,WeatherDisplay:10.37,2013-06-15 05:32:00,
2013-06-15 01:37:00,59.2,54.7,29.96,SSW,200,0.0,0.0,85,0.00,,,0.00,WeatherDisplay:10.37,2013-06-15 05:37:00,
2013-06-15 01:42:00,58.6,54.4,29.96,SE,146,0.0,0.0,86,0.00,,,0.00,WeatherDisplay:10.37,2013-06-15 05:42:00,
2013-06-15 01:47:00,58.0,53.8,29.96,SE,146,0.0,0.0,86,0.00,,,0.00,WeatherDisplay:10.37,2013-06-15 05:47:00,
2013-06-15 01:52:00,57.6,53.8,29.96,WSW,253,0.0,0.0,87,0.00,,,0.00,WeatherDisplay:10.37,2013-06-15 05:52:00,
2013-06-15 01:57:00,57.2,53.4,29.96,WSW,253,0.0,0.0,87,0.00,,,0.00,WeatherDisplay:10.37,2013-06-15 05:57:00,
2013-06-15 02:02:00,57.1,53.6,29.97,WSW,253,0.0,0.0,88,0.00,,,0.00,WeatherDisplay:10.37,2013-06-15 06:02:00,
2013-06-15 02:07:00,56.9,53.4,29.97,WSW,253,0.0,0.0,88,0.00,,,0.00,WeatherDisplay:10.37,2013-06-15 06:07:00,
2013-06-15 02:12:00,56.8,53.3,29.97,WSW,253,0.0,0.0,88,0.00,,,0.00,WeatherDisplay:10.37,2013-06-15 06:12:00,
2013-06-15 02:17:00,56.7,53.2,29.97,WSW,253,0.0,0.0,88,0.00,,,0.00,WeatherDisplay:10.37,2013-06-15 06:17:00,
2013-06-15 02:22:00,56.5,53.0,29.97,WSW,253,0.0,0.0,88,0.00,,,0.00,WeatherDisplay:10.37,2013-06-15 06:22:00,
2013-06-15 02:27:00,56.5,53.3,29.97,NE,44,0.0,0.1,89,0.00,,,0.00,WeatherDisplay:10.37,2013-06-15 06:27:00,
2013-06-15 02:32:00,56.3,53.1,29.97,NW,318,2.0,2.0,89,0.00,,,0.00,WeatherDisplay:10.37,2013-06-15 06:32:00,
2013-06-15 02:37:00,56.3,53.1,29.97,WSW,252,0.0,0.0,89,0.00,,,0.00,WeatherDisplay:10.37,2013-06-15 06:37:00,
2013-06-15 02:42:00,56.1,52.9,29.97,WSW,252,0.0,0.0,89,0.00,,,0.00,WeatherDisplay:10.37,2013-06-15 06:42:00,
2013-06-15 02:47:00,55.9,52.7,29.97,WSW,252,0.0,0.0,89,0.00,,,0.00,WeatherDisplay:10.37,2013-06-15 06:47:00,
2013-06-15 02:52:00,55.5,52.3,29.98,WSW,253,0.0,0.0,89,0.00,,,0.00,WeatherDisplay:10.37,2013-06-15 06:52:00,
2013-06-15 02:57:00,55.2,52.0,29.98,WSW,252,0.0,0.0,89,0.00,,,0.00,WeatherDisplay:10.37,2013-06-15 06:57:00,
2013-06-15 03:02:00,54.9,51.7,29.98,WSW,252,0.0,0.0,89,0.00,,,0.00,WeatherDisplay:10.37,2013-06-15 07:02:00,
2013-06-15 03:07:00,54.9,51.7,29.98,WSW,253,0.0,0.0,89,0.00,,,0.00,WeatherDisplay:10.37,2013-06-15 07:07:00,
2013-06-15 03:12:00,54.8,51.9,29.98,WSW,253,0.0,0.0,90,0.00,,,0.00,WeatherDisplay:10.37,2013-06-15 07:12:00,
2013-06-15 03:17:00,54.8,51.9,29.98,WSW,253,0.0,0.0,90,0.00,,,0.00,WeatherDisplay:10.37,2013-06-15 07:17:00,
2013-06-15 03:23:00,54.9,52.0,29.98,WSW,250,0.0,0.0,90,0.00,,,0.00,WeatherDisplay:10.37,2013-06-15 07:23:00,
2013-06-15 03:28:00,54.9,52.0,29.97,WSW,250,0.0,0.0,90,0.00,,,0.00,WeatherDisplay:10.37,2013-06-15 07:28:00,
2013-06-15 03:33:00,54.6,51.7,29.97,WSW,250,0.0,0.0,90,0.00,,,0.00,WeatherDisplay:10.37,2013-06-15 07:33:00,
2013-06-15 03:38:00,54.4,51.5,29.97,WSW,250,0.0,0.0,90,0.00,,,0.00,WeatherDisplay:10.37,2013-06-15 07:38:00,
2013-06-15 03:43:00,54.4,51.5,29.97,WSW,250,0.0,0.0,90,0.00,,,0.00,WeatherDisplay:10.37,2013-06-15 07:43:00,
2013-06-15 03:48:00,54.2,51.3,29.97,WSW,250,0.0,0.0,90,0.00,,,0.00,WeatherDisplay:10.37,2013-06-15 07:48:00,
2013-06-15 03:53:00,54.1,51.2,29.97,WSW,250,0.0,0.0,90,0.00,,,0.00,WeatherDisplay:10.37,2013-06-15 07:53:00,
2013-06-15 03:58:00,54.0,51.1,29.97,WSW,250,0.0,0.0,90,0.00,,,0.00,WeatherDisplay:10.37,2013-06-15 07:58:00,
2013-06-15 04:03:00,53.8,50.9,29.97,WSW,250,0.0,0.0,90,0.00,,,0.00,WeatherDisplay:10.37,2013-06-15 08:03:00,
2013-06-15 04:08:00,53.5,50.6,29.97,WSW,250,0.0,0.0,90,0.00,,,0.00,WeatherDisplay:10.37,2013-06-15 08:08:00,
2013-06-15 04:13:00,53.3,50.4,29.97,WSW,250,0.0,0.0,90,0.00,,,0.00,WeatherDisplay:10.37,2013-06-15 08:13:00,
2013-06-15 04:18:00,53.3,50.4,29.97,WSW,250,0.0,0.0,90,0.00,,,0.00,WeatherDisplay:10.37,2013-06-15 08:18:00,
2013-06-15 04:23:00,53.3,50.4,29.97,WSW,250,0.0,0.0,90,0.00,,,0.00,WeatherDisplay:10.37,2013-06-15 08:23:00,
2013-06-15 04:28:00,53.2,50.3,29.97,WSW,250,0.0,0.0,90,0.00,,,0.00,WeatherDisplay:10.37,2013-06-15 08:28:00,
2013-06-15 04:33:00,53.1,50.2,29.97,WSW,250,0.0,0.0,90,0.00,,,0.00,WeatherDisplay:10.37,2013-06-15 08:33:00,
2013-06-15 04:38:00,53.1,50.2,29.97,WSW,250,0.0,0.0,90,0.00,,,0.00,WeatherDisplay:10.37,2013-06-15 08:38:00,
2013-06-15 04:43:00,53.2,50.3,29.97,WSW,250,0.0,0.0,90,0.00,,,0.00,WeatherDisplay:10.37,2013-06-15 08:43:00,
2013-06-15 04:48:00,53.3,50.4,29.97,WSW,250,0.0,0.0,90,0.00,,,0.00,WeatherDisplay:10.37,2013-06-15 08:48:00,
2013-06-15 04:53:00,53.3,50.4,29.97,WSW,250,0.0,0.0,90,0.00,,,0.00,WeatherDisplay:10.37,2013-06-15 08:53:00,
2013-06-15 04:58:00,53.1,50.2,29.98,WSW,250,0.0,0.0,90,0.00,,,0.00,WeatherDisplay:10.37,2013-06-15 08:58:00,
2013-06-15 05:03:00,52.9,50.0,29.98,WSW,250,0.0,0.0,90,0.00,CLR,,0.00,WeatherDisplay:10.37,2013-06-15 09:03:00,
2013-06-15 05:08:00,52.7,49.8,29.98,WSW,250,0.0,0.0,90,0.00,CLR,,0.00,WeatherDisplay:10.37,2013-06-15 09:08:00,
2013-06-15 05:13:00,52.6,49.8,29.98,WSW,250,0.0,0.0,90,0.00,CLR,,0.00,WeatherDisplay:10.37,2013-06-15 09:13:00,
2013-06-15 05:18:00,52.5,49.7,29.98,WSW,250,0.0,0.0,90,0.00,CLR,,0.00,WeatherDisplay:10.37,2013-06-15 09:18:00,
2013-06-15 05:23:00,52.4,49.6,29.98,WSW,250,0.0,0.0,90,0.00,CLR,,0.00,WeatherDisplay:10.37,2013-06-15 09:23:00,
2013-06-15 05:28:00,52.3,49.5,29.98,WSW,250,0.0,0.0,90,0.00,CLR,,0.00,WeatherDisplay:10.37,2013-06-15 09:28:00,
2013-06-15 05:33:00,52.1,49.3,29.98,WSW,250,0.0,0.0,90,0.00,CLR,,0.00,WeatherDisplay:10.37,2013-06-15 09:33:00,
2013-06-15 05:38:00,51.9,49.1,29.98,WSW,250,0.0,0.0,90,0.00,CLR,,0.00,WeatherDisplay:10.37,2013-06-15 09:38:00,
2013-06-15 05:43:00,52.0,49.2,29.98,WSW,250,0.0,0.0,90,0.00,CLR,,0.00,WeatherDisplay:10.37,2013-06-15 09:43:00,
2013-06-15 05:48:00,52.0,49.2,29.98,WSW,250,0.0,0.0,90,0.00,CLR,,0.00,WeatherDisplay:10.37,2013-06-15 09:48:00,
2013-06-15 05:53:00,52.0,49.2,29.98,WSW,250,0.0,0.0,90,0.00,CLR,,0.00,WeatherDisplay:10.37,2013-06-15 09:53:00,
2013-06-15 05:58:00,52.1,49.3,29.99,WSW,250,0.0,0.0,90,0.00,CLR,,0.00,WeatherDisplay:10.37,2013-06-15 09:58:00,
2013-06-15 06:03:00,52.0,49.2,29.99,WSW,250,0.0,0.0,90,0.00,CLR,,0.00,WeatherDisplay:10.37,2013-06-15 10:03:00,
2013-06-15 06:08:00,52.0,49.2,29.99,WSW,250,0.0,0.0,90,0.00,CLR,,0.00,WeatherDisplay:10.37,2013-06-15 10:08:00,
2013-06-15 06:13:00,52.2,49.4,29.99,NNE,16,0.0,0.0,90,0.00,CLR,,0.00,WeatherDisplay:10.37,2013-06-15 10:13:00,
2013-06-15 06:18:00,52.5,49.7,29.99,WNW,297,0.0,0.0,90,0.00,CLR,,0.00,WeatherDisplay:10.37,2013-06-15 10:18:00,
2013-06-15 06:23:00,52.7,49.8,30.00,NNW,337,1.1,1.1,90,0.00,CLR,,0.00,WeatherDisplay:10.37,2013-06-15 10:23:00,
2013-06-15 06:28:00,52.8,49.9,30.00,NW,311,0.0,0.0,90,0.00,CLR,,0.00,WeatherDisplay:10.37,2013-06-15 10:28:00,
2013-06-15 06:33:00,53.1,50.2,30.00,WNW,300,1.1,0.0,90,0.00,CLR,,0.00,WeatherDisplay:10.37,2013-06-15 10:33:00,
2013-06-15 06:38:00,53.2,50.3,30.00,WNW,301,1.1,0.0,90,0.00,CLR,,0.00,WeatherDisplay:10.37,2013-06-15 10:38:00,
2013-06-15 06:43:00,53.4,50.5,30.01,ESE,115,0.0,0.0,90,0.00,CLR,,0.00,WeatherDisplay:10.37,2013-06-15 10:43:00,
2013-06-15 06:48:00,53.7,50.8,30.01,ENE,72,1.1,0.0,90,0.00,CLR,,0.00,WeatherDisplay:10.37,2013-06-15 10:48:00,
2013-06-15 06:53:00,54.2,51.0,30.01,WNW,297,0.0,0.0,89,0.00,CLR,,0.00,WeatherDisplay:10.37,2013-06-15 10:53:00,
2013-06-15 06:58:00,54.9,51.7,30.01,NE,34,0.0,0.0,89,0.00,CLR,,0.00,WeatherDisplay:10.37,2013-06-15 10:58:00,
2013-06-15 07:03:00,55.8,52.3,30.02,NE,52,0.0,0.0,88,0.00,CLR,,0.00,WeatherDisplay:10.37,2013-06-15 11:03:00,
2013-06-15 07:08:00,56.5,52.7,30.02,WNW,302,2.0,2.0,87,0.00,CLR,,0.00,WeatherDisplay:10.37,2013-06-15 11:08:00,
2013-06-15 07:13:00,56.8,52.7,30.02,SSW,197,2.3,2.3,86,0.00,CLR,,0.00,WeatherDisplay:10.37,2013-06-15 11:13:00,
2013-06-15 07:18:00,57.5,53.0,30.03,WSW,258,2.3,2.3,85,0.00,CLR,,0.00,WeatherDisplay:10.37,2013-06-15 11:18:00,
2013-06-15 07:23:00,57.7,52.9,30.03,NW,304,2.0,2.0,84,0.00,CLR,,0.00,WeatherDisplay:10.37,2013-06-15 11:23:00,
2013-06-15 07:28:00,58.0,52.9,30.03,SW,225,3.5,3.5,83,0.00,CLR,,0.00,WeatherDisplay:10.37,2013-06-15 11:28:00,
2013-06-15 07:33:00,58.3,53.2,30.03,SSW,200,1.1,1.1,83,0.00,CLR,,0.00,WeatherDisplay:10.37,2013-06-15 11:33:00,
2013-06-15 07:38:00,58.8,53.6,30.03,NNE,29,3.5,3.5,83,0.00,CLR,,0.00,WeatherDisplay:10.37,2013-06-15 11:38:00,
2013-06-15 07:43:00,59.1,53.3,30.03,NW,307,3.5,3.5,81,0.00,CLR,,0.00,WeatherDisplay:10.37,2013-06-15 11:43:00,
2013-06-15 07:48:00,59.3,53.5,30.03,NW,316,3.5,3.5,81,0.00,CLR,,0.00,WeatherDisplay:10.37,2013-06-15 11:48:00,
2013-06-15 07:53:00,59.5,53.7,30.03,SW,224,2.3,2.3,81,0.00,CLR,,0.00,WeatherDisplay:10.37,2013-06-15 11:53:00,
2013-06-15 07:58:00,59.7,53.5,30.03,SE,131,3.5,3.5,80,0.00,CLR,,0.00,WeatherDisplay:10.37,2013-06-15 11:58:00,
2013-06-15 08:03:00,60.0,53.5,30.03,WNW,284,2.3,2.3,79,0.00,CLR,,0.00,WeatherDisplay:10.37,2013-06-15 12:03:00,
2013-06-15 08:09:00,60.6,54.0,30.02,West,276,2.3,2.3,79,0.00,CLR,,0.00,WeatherDisplay:10.37,2013-06-15 12:09:00,
2013-06-15 08:14:00,60.9,54.7,30.02,NNE,22,3.5,3.5,80,0.00,CLR,,0.00,WeatherDisplay:10.37,2013-06-15 12:14:00,
2013-06-15 08:19:00,61.5,54.6,30.02,West,267,0.0,0.0,78,0.00,CLR,,0.00,WeatherDisplay:10.37,2013-06-15 12:19:00,
2013-06-15 08:24:00,62.2,54.5,30.02,WSW,249,2.3,2.3,76,0.00,CLR,,0.00,WeatherDisplay:10.37,2013-06-15 12:24:00,
2013-06-15 08:29:00,62.7,55.7,30.02,WSW,249,0.0,0.0,78,0.00,CLR,,0.00,WeatherDisplay:10.37,2013-06-15 12:29:00,
2013-06-15 08:34:00,63.5,55.1,30.02,South,179,3.5,3.5,74,0.00,CLR,,0.00,WeatherDisplay:10.37,2013-06-15 12:34:00,
2013-06-15 08:39:00,63.3,55.6,30.02,North,353,1.1,1.1,76,0.00,CLR,,0.00,WeatherDisplay:10.37,2013-06-15 12:39:00,
2013-06-15 08:44:00,63.4,55.0,30.02,WNW,284,2.3,2.3,74,0.00,CLR,,0.00,WeatherDisplay:10.37,2013-06-15 12:44:00,
2013-06-15 08:49:00,63.5,54.7,30.02,NW,312,3.5,3.5,73,0.00,CLR,,0.00,WeatherDisplay:10.37,2013-06-15 12:49:00,
2013-06-15 08:54:00,63.5,55.4,30.03,NW,305,1.1,1.1,75,0.00,CLR,,0.00,WeatherDisplay:10.37,2013-06-15 12:54:00,
2013-06-15 08:59:00,64.1,54.9,30.03,SW,232,2.3,2.3,72,0.00,CLR,,0.00,WeatherDisplay:10.37,2013-06-15 12:59:00,
2013-06-15 09:04:00,64.6,55.0,30.03,WNW,297,2.3,2.3,71,0.00,CLR,,0.00,WeatherDisplay:10.37,2013-06-15 13:04:00,
2013-06-15 09:09:00,64.6,54.6,30.03,SSW,201,2.3,2.3,70,0.00,CLR,,0.00,WeatherDisplay:10.37,2013-06-15 13:09:00,
2013-06-15 09:14:00,65.5,56.2,30.03,SW,217,0.0,0.0,72,0.00,CLR,,0.00,WeatherDisplay:10.37,2013-06-15 13:14:00,
2013-06-15 09:19:00,66.6,55.3,30.03,WNW,300,2.3,2.3,67,0.00,CLR,,0.00,WeatherDisplay:10.37,2013-06-15 13:19:00,
2013-06-15 09:24:00,66.8,55.9,30.02,SSE,152,2.3,0.0,68,0.00,CLR,,0.00,WeatherDisplay:10.37,2013-06-15 13:24:00,
2013-06-15 09:29:00,67.2,56.3,30.02,West,260,2.3,2.3,68,0.00,CLR,,0.00,WeatherDisplay:10.37,2013-06-15 13:29:00,
2013-06-15 09:34:00,67.2,55.0,30.02,East,91,2.3,2.3,65,0.00,CLR,,0.00,WeatherDisplay:10.37,2013-06-15 13:34:00,
2013-06-15 09:39:00,67.4,55.6,30.03,WSW,256,4.6,4.6,66,0.00,CLR,,0.00,WeatherDisplay:10.37,2013-06-15 13:39:00,
2013-06-15 09:44:00,67.3,55.1,30.03,West,264,3.5,3.5,65,0.00,CLR,,0.00,WeatherDisplay:10.37,2013-06-15 13:44:00,
2013-06-15 09:49:00,67.3,55.5,30.02,SW,236,3.5,3.5,66,0.00,CLR,,0.00,WeatherDisplay:10.37,2013-06-15 13:49:00,
2013-06-15 09:54:00,67.6,55.0,30.02,WNW,287,3.0,3.0,64,0.00,CLR,,0.00,WeatherDisplay:10.37,2013-06-15 13:54:00,
2013-06-15 09:59:00,67.2,55.9,30.03,SSE,153,3.0,3.0,67,0.00,CLR,,0.00,WeatherDisplay:10.37,2013-06-15 13:59:00,
2013-06-15 10:04:00,68.2,56.8,30.03,NW,322,0.0,0.1,67,0.00,CLR,,0.00,WeatherDisplay:10.37,2013-06-15 14:04:00,
2013-06-15 10:09:00,68.5,55.8,30.03,WSW,246,1.1,1.1,64,0.00,CLR,,0.00,WeatherDisplay:10.37,2013-06-15 14:09:00,
2013-06-15 10:14:00,69.1,56.4,30.03,WNW,287,3.5,3.5,64,0.00,CLR,,0.00,WeatherDisplay:10.37,2013-06-15 14:14:00,
2013-06-15 10:19:00,69.6,57.3,30.03,ESE,121,1.1,1.1,65,0.00,CLR,,0.00,WeatherDisplay:10.37,2013-06-15 14:19:00,
2013-06-15 10:24:00,70.2,57.4,30.03,SE,142,1.1,0.0,64,0.00,CLR,,0.00,WeatherDisplay:10.37,2013-06-15 14:24:00,
2013-06-15 10:29:00,69.9,55.4,30.03,ESE,114,3.5,3.5,60,0.00,CLR,,0.00,WeatherDisplay:10.37,2013-06-15 14:29:00,
2013-06-15 10:34:00,69.8,55.3,30.03,SE,135,1.1,1.1,60,0.00,CLR,,0.00,WeatherDisplay:10.37,2013-06-15 14:34:00,
2013-06-15 10:39:00,69.9,53.5,30.03,NW,307,3.5,3.5,56,0.00,CLR,,0.00,WeatherDisplay:10.37,2013-06-15 14:39:00,
2013-06-15 10:44:00,69.8,54.8,30.03,WSW,249,1.1,1.1,59,0.00,CLR,,0.00,WeatherDisplay:10.37,2013-06-15 14:44:00,
2013-06-15 10:49:00,70.2,56.6,30.03,NW,307,3.0,3.0,62,0.00,CLR,,0.00,WeatherDisplay:10.37,2013-06-15 14:49:00,
2013-06-15 10:54:00,70.4,55.4,30.03,West,265,3.0,3.0,59,0.00,CLR,,0.00,WeatherDisplay:10.37,2013-06-15 14:54:00,
2013-06-15 10:59:00,69.9,54.4,30.03,WSW,256,2.3,2.3,58,0.00,CLR,,0.00,WeatherDisplay:10.37,2013-06-15 14:59:00,
2013-06-15 11:04:00,69.5,54.1,30.03,SE,144,3.5,3.5,58,0.00,CLR,,0.00,WeatherDisplay:10.37,2013-06-15 15:04:00,
2013-06-15 11:09:00,69.3,54.4,30.03,WSW,257,3.5,3.5,59,0.00,CLR,,0.00,WeatherDisplay:10.37,2013-06-15 15:09:00,
2013-06-15 11:14:00,69.5,55.5,30.03,SE,127,2.0,2.0,61,0.00,CLR,,0.00,WeatherDisplay:10.37,2013-06-15 15:14:00,
2013-06-15 11:19:00,70.1,55.6,30.03,WSW,256,3.5,3.5,60,0.00,CLR,,0.00,WeatherDisplay:10.37,2013-06-15 15:19:00,
2013-06-15 11:24:00,69.9,54.9,30.03,WSW,248,3.5,3.5,59,0.00,CLR,,0.00,WeatherDisplay:10.37,2013-06-15 15:24:00,
2013-06-15 11:29:00,70.0,55.5,30.03,WSW,257,1.1,1.1,60,0.00,CLR,,0.00,WeatherDisplay:10.37,2013-06-15 15:29:00,
2013-06-15 11:34:00,70.5,54.0,30.03,NW,309,2.3,2.3,56,0.00,CLR,,0.00,WeatherDisplay:10.37,2013-06-15 15:34:00,
2013-06-15 11:39:00,70.6,56.5,30.03,WSW,257,2.3,2.3,61,0.00,CLR,,0.00,WeatherDisplay:10.37,2013-06-15 15:39:00,
2013-06-15 11:44:00,71.2,55.2,30.04,East,80,3.5,3.5,57,0.00,CLR,,0.00,WeatherDisplay:10.37,2013-06-15 15:44:00,
2013-06-15 11:49:00,71.1,56.0,30.03,NW,304,4.6,4.6,59,0.00,CLR,,0.00,WeatherDisplay:10.37,2013-06-15 15:49:00,
2013-06-15 11:54:00,70.4,54.9,30.04,SW,235,8.1,8.1,58,0.00,CLR,,0.00,WeatherDisplay:10.37,2013-06-15 15:54:00,
2013-06-15 11:59:00,69.9,54.9,30.03,West,275,3.5,3.5,59,0.00,CLR,,0.00,WeatherDisplay:10.37,2013-06-15 15:59:00,
2013-06-15 12:04:00,70.1,56.9,30.03,NNW,342,3.0,3.0,63,0.00,CLR,,0.00,WeatherDisplay:10.37,2013-06-15 16:04:00,
2013-06-15 12:09:00,70.4,55.8,30.03,West,273,1.1,1.1,60,0.00,CLR,,0.00,WeatherDisplay:10.37,2013-06-15 16:09:00,
2013-06-15 12:14:00,71.1,57.4,30.03,NNE,16,2.0,2.0,62,0.00,CLR,,0.00,WeatherDisplay:10.37,2013-06-15 16:14:00,
2013-06-15 12:19:00,71.1,55.1,30.03,NNW,345,1.1,1.2,57,0.00,CLR,,0.00,WeatherDisplay:10.37,2013-06-15 16:19:00,
2013-06-15 12:24:00,70.7,55.7,30.03,NW,326,4.6,4.6,59,0.00,CLR,,0.00,WeatherDisplay:10.37,2013-06-15 16:24:00,
2013-06-15 12:29:00,70.9,53.9,30.03,West,259,6.0,6.0,55,0.00,CLR,,0.00,WeatherDisplay:10.37,2013-06-15 16:29:00,
2013-06-15 12:34:00,71.2,54.2,30.02,WNW,297,7.0,7.0,55,0.00,CLR,,0.00,WeatherDisplay:10.37,2013-06-15 16:34:00,
2013-06-15 12:39:00,71.4,53.4,30.02,SSE,153,4.6,4.6,53,0.00,CLR,,0.00,WeatherDisplay:10.37,2013-06-15 16:39:00,
2013-06-15 12:44:00,72.1,53.5,30.02,West,260,9.2,9.2,52,0.00,CLR,,0.00,WeatherDisplay:10.37,2013-06-15 16:44:00,
2013-06-15 12:49:00,72.2,53.6,30.02,West,271,4.6,4.6,52,0.00,CLR,,0.00,WeatherDisplay:10.37,2013-06-15 16:49:00,
2013-06-15 12:54:00,72.4,53.2,30.02,WSW,257,3.5,3.5,51,0.00,CLR,,0.00,WeatherDisplay:10.37,2013-06-15 16:54:00,
2013-06-15 12:59:00,72.2,54.1,30.02,West,271,2.3,2.3,53,0.00,CLR,,0.00,WeatherDisplay:10.37,2013-06-15 16:59:00,
2013-06-15 13:04:00,71.8,52.2,30.02,WNW,295,5.0,5.0,50,0.00,CLR,,0.00,WeatherDisplay:10.37,2013-06-15 17:04:00,
2013-06-15 13:09:00,72.3,53.7,30.01,ESE,113,3.5,3.5,52,0.00,CLR,,0.00,WeatherDisplay:10.37,2013-06-15 17:09:00,
2013-06-15 13:14:00,72.4,51.6,30.02,WSW,255,3.5,3.5,48,0.00,CLR,,0.00,WeatherDisplay:10.37,2013-06-15 17:14:00,
2013-06-15 13:19:00,72.8,53.6,30.01,WNW,301,7.0,7.0,51,0.00,CLR,,0.00,WeatherDisplay:10.37,2013-06-15 17:19:00,
2013-06-15 13:24:00,72.6,50.0,30.01,SSE,153,5.8,5.8,45,0.00,CLR,,0.00,WeatherDisplay:10.37,2013-06-15 17:24:00,
2013-06-15 13:29:00,73.5,53.2,30.01,WNW,285,4.0,4.0,49,0.00,CLR,,0.00,WeatherDisplay:10.37,2013-06-15 17:29:00,
2013-06-15 13:35:00,73.0,49.2,30.01,WNW,297,5.8,5.8,43,0.00,CLR,,0.00,WeatherDisplay:10.37,2013-06-15 17:35:00,
2013-06-15 13:40:00,72.9,49.1,30.01,SSE,153,5.8,5.8,43,0.00,CLR,,0.00,WeatherDisplay:10.37,2013-06-15 17:40:00,
2013-06-15 13:45:00,72.8,51.4,30.01,West,269,2.3,2.3,47,0.00,CLR,,0.00,WeatherDisplay:10.37,2013-06-15 17:45:00,
2013-06-15 13:50:00,73.3,48.2,30.01,West,260,5.0,5.0,41,0.00,CLR,,0.00,WeatherDisplay:10.37,2013-06-15 17:50:00,
2013-06-15 13:55:00,73.3,50.1,30.01,ENE,77,4.6,4.6,44,0.00,CLR,,0.00,WeatherDisplay:10.37,2013-06-15 17:55:00,
2013-06-15 14:00:00,72.9,48.5,30.00,WNW,299,5.8,5.8,42,0.00,CLR,,0.00,WeatherDisplay:10.37,2013-06-15 18:00:00,
2013-06-15 14:05:00,73.3,49.4,30.00,ESE,108,6.9,6.9,43,0.00,CLR,,0.00,WeatherDisplay:10.37,2013-06-15 18:05:00,
2013-06-15 14:10:00,73.2,48.1,30.00,West,263,6.9,6.9,41,0.00,CLR,,0.00,WeatherDisplay:10.37,2013-06-15 18:10:00,
2013-06-15 14:15:00,73.0,47.9,30.00,West,274,4.6,4.6,41,0.00,CLR,,0.00,WeatherDisplay:10.37,2013-06-15 18:15:00,
2013-06-15 14:20:00,73.1,47.3,29.99,SW,226,3.5,3.5,40,0.00,CLR,,0.00,WeatherDisplay:10.37,2013-06-15 18:20:00,
2013-06-15 14:25:00,73.3,47.5,29.99,SW,217,5.8,5.8,40,0.00,CLR,,0.00,WeatherDisplay:10.37,2013-06-15 18:25:00,
2013-06-15 14:30:00,73.4,46.9,29.99,NW,311,5.8,5.8,39,0.00,CLR,,0.00,WeatherDisplay:10.37,2013-06-15 18:30:00,
2013-06-15 14:35:00,73.3,48.2,30.00,SE,146,3.5,3.5,41,0.00,CLR,,0.00,WeatherDisplay:10.37,2013-06-15 18:35:00,
2013-06-15 14:40:00,73.3,47.5,29.99,NE,49,8.1,8.1,40,0.00,CLR,,0.00,WeatherDisplay:10.37,2013-06-15 18:40:00,
2013-06-15 14:45:00,73.3,47.5,29.99,NW,318,3.5,3.5,40,0.00,CLR,,0.00,WeatherDisplay:10.37,2013-06-15 18:45:00,
2013-06-15 14:50:00,73.7,49.2,29.99,East,90,6.9,6.9,42,0.00,CLR,,0.00,WeatherDisplay:10.37,2013-06-15 18:50:00,
2013-06-15 14:55:00,73.3,50.1,29.99,West,274,3.0,3.0,44,0.00,CLR,,0.00,WeatherDisplay:10.37,2013-06-15 18:55:00,
2013-06-15 15:00:00,73.8,50.5,29.99,WSW,256,2.3,2.3,44,0.00,CLR,,0.00,WeatherDisplay:10.37,2013-06-15 19:00:00,
2013-06-15 15:05:00,73.5,49.0,29.99,WSW,257,1.1,1.1,42,0.00,CLR,,0.00,WeatherDisplay:10.37,2013-06-15 19:05:00,
2013-06-15 15:10:00,73.7,49.2,30.00,NNW,338,4.0,4.0,42,0.00,CLR,,0.00,WeatherDisplay:10.37,2013-06-15 19:10:00,
2013-06-15 15:15:00,73.8,49.9,30.00,NNW,343,3.5,3.5,43,0.00,CLR,,0.00,WeatherDisplay:10.37,2013-06-15 19:15:00,
2013-06-15 15:20:00,74.0,49.4,30.00,SSW,209,4.6,4.6,42,0.00,CLR,,0.00,WeatherDisplay:10.37,2013-06-15 19:20:00,
2013-06-15 15:25:00,73.8,50.5,30.00,West,271,2.3,2.3,44,0.00,CLR,,0.00,WeatherDisplay:10.37,2013-06-15 19:25:00,
2013-06-15 15:30:00,73.9,48.1,29.99,ENE,70,3.5,3.5,40,0.00,CLR,,0.00,WeatherDisplay:10.37,2013-06-15 19:30:00,
2013-06-15 15:35:00,73.8,50.5,29.99,WSW,256,2.3,2.3,44,0.00,CLR,,0.00,WeatherDisplay:10.37,2013-06-15 19:35:00,
2013-06-15 15:40:00,73.6,48.4,29.99,SSE,148,2.3,2.3,41,0.00,CLR,,0.00,WeatherDisplay:10.37,2013-06-15 19:40:00,
2013-06-15 15:45:00,73.9,50.0,29.99,SW,228,3.5,3.5,43,0.00,CLR,,0.00,WeatherDisplay:10.37,2013-06-15 19:45:00,
2013-06-15 15:50:00,74.0,49.4,29.99,SE,138,3.5,3.5,42,0.00,CLR,,0.00,WeatherDisplay:10.37,2013-06-15 19:50:00,
2013-06-15 15:55:00,74.4,51.1,29.98,East,100,1.1,1.1,44,0.00,CLR,,0.00,WeatherDisplay:10.37,2013-06-15 19:55:00,
2013-06-15 16:00:00,74.0,50.1,29.98,WSW,239,4.0,4.0,43,0.00,CLR,,0.00,WeatherDisplay:10.37,2013-06-15 20:00:00,
2013-06-15 16:05:00,73.8,49.9,29.98,WNW,293,3.5,3.5,43,0.00,CLR,,0.00,WeatherDisplay:10.37,2013-06-15 20:05:00,
2013-06-15 16:10:00,73.8,52.3,29.98,East,81,3.5,3.5,47,0.00,CLR,,0.00,WeatherDisplay:10.37,2013-06-15 20:10:00,
2013-06-15 16:15:00,73.7,51.6,29.98,NW,311,2.3,2.3,46,0.00,CLR,,0.00,WeatherDisplay:10.37,2013-06-15 20:15:00,
2013-06-15 16:20:00,73.7,51.6,29.98,WNW,294,4.6,4.6,46,0.00,CLR,,0.00,WeatherDisplay:10.37,2013-06-15 20:20:00,
2013-06-15 16:25:00,73.7,51.0,29.98,East,84,2.3,2.3,45,0.00,CLR,,0.00,WeatherDisplay:10.37,2013-06-15 20:25:00,
2013-06-15 16:30:00,73.6,50.3,29.98,WSW,257,3.5,3.5,44,0.00,CLR,,0.00,WeatherDisplay:10.37,2013-06-15 20:30:00,
2013-06-15 16:35:00,73.7,51.6,29.98,NW,307,3.5,3.5,46,0.00,CLR,,0.00,WeatherDisplay:10.37,2013-06-15 20:35:00,
2013-06-15 16:40:00,73.4,51.4,29.98,East,98,2.3,2.3,46,0.00,CLR,,0.00,WeatherDisplay:10.37,2013-06-15 20:40:00,
2013-06-15 16:45:00,73.4,51.4,29.98,ENE,77,2.3,2.3,46,0.00,CLR,,0.00,WeatherDisplay:10.37,2013-06-15 20:45:00,
2013-06-15 16:50:00,73.5,52.0,29.97,West,274,3.5,3.5,47,0.00,CLR,,0.00,WeatherDisplay:10.37,2013-06-15 20:50:00,
2013-06-15 16:55:00,73.7,52.8,29.97,NE,44,1.1,1.1,48,0.00,CLR,,0.00,WeatherDisplay:10.37,2013-06-15 20:55:00,
2013-06-15 17:00:00,73.5,51.4,29.97,West,273,1.1,1.1,46,0.00,CLR,,0.00,WeatherDisplay:10.37,2013-06-15 21:00:00,
2013-06-15 17:05:00,73.7,51.6,29.97,SE,132,1.1,1.1,46,0.00,CLR,,0.00,WeatherDisplay:10.37,2013-06-15 21:05:00,
2013-06-15 17:10:00,73.7,51.0,29.97,ENE,60,2.3,2.3,45,0.00,CLR,,0.00,WeatherDisplay:10.37,2013-06-15 21:10:00,
2013-06-15 17:15:00,73.8,52.3,29.97,NW,304,2.3,2.3,47,0.00,CLR,,0.00,WeatherDisplay:10.37,2013-06-15 21:15:00,
2013-06-15 17:20:00,73.9,51.8,29.96,NE,44,3.5,0.0,46,0.00,CLR,,0.00,WeatherDisplay:10.37,2013-06-15 21:20:00,
2013-06-15 17:25:00,74.1,52.0,29.96,West,274,2.3,2.3,46,0.00,CLR,,0.00,WeatherDisplay:10.37,2013-06-15 21:25:00,
2013-06-15 17:30:00,74.1,55.9,29.96,ESE,103,1.1,0.0,53,0.00,CLR,,0.00,WeatherDisplay:10.37,2013-06-15 21:30:00,
2013-06-15 17:35:00,74.2,52.7,29.96,East,79,3.0,3.0,47,0.00,CLR,,0.00,WeatherDisplay:10.37,2013-06-15 21:35:00,
2013-06-15 17:40:00,74.5,52.9,29.96,West,266,1.1,0.0,47,0.00,CLR,,0.00,WeatherDisplay:10.37,2013-06-15 21:40:00,
2013-06-15 17:45:00,74.4,52.3,29.96,WNW,282,3.5,3.5,46,0.00,CLR,,0.00,WeatherDisplay:10.37,2013-06-15 21:45:00,
2013-06-15 17:51:00,74.3,53.3,29.96,WNW,292,1.1,1.1,48,0.00,CLR,,0.00,WeatherDisplay:10.37,2013-06-15 21:51:00,
2013-06-15 17:56:00,74.8,54.9,29.95,NNE,12,1.1,0.0,50,0.00,CLR,,0.00,WeatherDisplay:10.37,2013-06-15 21:56:00,
2013-06-15 18:01:00,74.9,54.4,29.95,NNE,19,1.1,1.1,49,0.00,CLR,,0.00,WeatherDisplay:10.37,2013-06-15 22:01:00,
2013-06-15 18:06:00,74.9,56.1,29.95,NNW,338,0.0,0.0,52,0.00,,,0.00,WeatherDisplay:10.37,2013-06-15 22:06:00,
2013-06-15 18:11:00,75.1,54.1,29.96,NNW,330,3.5,3.5,48,0.00,,,0.00,WeatherDisplay:10.37,2013-06-15 22:11:00,
2013-06-15 18:16:00,74.7,55.4,29.96,WNW,283,1.1,0.0,51,0.00,,,0.00,WeatherDisplay:10.37,2013-06-15 22:16:00,
2013-06-15 18:21:00,74.3,54.5,29.96,NNW,336,2.0,2.0,50,0.00,,,0.00,WeatherDisplay:10.37,2013-06-15 22:21:00,
2013-06-15 18:26:00,73.9,51.8,29.96,NW,313,1.1,1.1,46,0.00,,,0.00,WeatherDisplay:10.37,2013-06-15 22:26:00,
2013-06-15 18:31:00,74.1,53.2,29.96,NW,314,2.3,2.3,48,0.00,,,0.00,WeatherDisplay:10.37,2013-06-15 22:31:00,
2013-06-15 18:36:00,74.0,52.5,29.96,West,268,1.1,1.1,47,0.00,,,0.00,WeatherDisplay:10.37,2013-06-15 22:36:00,
2013-06-15 18:41:00,73.8,52.3,29.97,West,268,1.1,1.1,47,0.00,,,0.00,WeatherDisplay:10.37,2013-06-15 22:41:00,
2013-06-15 18:46:00,73.7,51.0,29.97,West,275,2.3,2.3,45,0.00,,,0.00,WeatherDisplay:10.37,2013-06-15 22:46:00,
2013-06-15 18:51:00,73.4,51.9,29.96,NW,312,0.0,0.0,47,0.00,,,0.00,WeatherDisplay:10.37,2013-06-15 22:51:00,
2013-06-15 18:56:00,73.9,53.5,29.96,WNW,297,0.0,0.0,49,0.00,,,0.00,WeatherDisplay:10.37,2013-06-15 22:56:00,
2013-06-15 19:01:00,74.4,52.9,29.96,NW,316,0.0,0.0,47,0.00,,,0.00,WeatherDisplay:10.37,2013-06-15 23:01:00,
2013-06-15 19:06:00,74.5,54.1,29.96,NW,316,0.0,0.0,49,0.00,CLR,,0.00,WeatherDisplay:10.37,2013-06-15 23:06:00,
2013-06-15 19:11:00,74.4,54.0,29.96,NW,316,0.0,0.0,49,0.00,CLR,,0.00,WeatherDisplay:10.37,2013-06-15 23:11:00,
2013-06-15 19:16:00,74.4,52.9,29.96,NW,316,0.0,0.0,47,0.00,CLR,,0.00,WeatherDisplay:10.37,2013-06-15 23:16:00,
2013-06-15 19:21:00,74.1,51.4,29.96,NW,316,0.0,0.0,45,0.00,CLR,,0.00,WeatherDisplay:10.37,2013-06-15 23:21:00,
2013-06-15 19:26:00,74.1,53.7,29.96,NW,316,0.0,0.0,49,0.00,CLR,,0.00,WeatherDisplay:10.37,2013-06-15 23:26:00,
2013-06-15 19:31:00,73.4,54.2,29.96,NW,316,0.0,0.0,51,0.00,CLR,,0.00,WeatherDisplay:10.37,2013-06-15 23:31:00,
2013-06-15 19:36:00,72.0,53.9,29.96,NW,316,0.0,0.0,53,0.00,CLR,,0.00,WeatherDisplay:10.37,2013-06-15 23:36:00,
2013-06-15 19:41:00,70.5,54.5,29.96,NW,316,0.0,0.0,57,0.00,CLR,,0.00,WeatherDisplay:10.37,2013-06-15 23:41:00,
2013-06-15 19:46:00,69.4,55.4,29.96,NW,316,0.0,0.0,61,0.00,CLR,,0.00,WeatherDisplay:10.37,2013-06-15 23:46:00,
2013-06-15 19:51:00,68.5,55.4,29.96,NW,316,0.0,0.0,63,0.00,CLR,,0.00,WeatherDisplay:10.37,2013-06-15 23:51:00,
2013-06-15 19:56:00,67.6,54.6,29.96,NW,316,0.0,0.0,63,0.00,CLR,,0.00,WeatherDisplay:10.37,2013-06-15 23:56:00,
2013-06-15 20:01:00,66.8,55.5,29.96,NW,316,0.0,0.0,67,0.00,CLR,,0.00,WeatherDisplay:10.37,2013-06-16 00:01:00,
2013-06-15 20:06:00,66.1,55.6,29.96,NW,316,0.0,0.0,69,0.00,CLR,,0.00,WeatherDisplay:10.37,2013-06-16 00:06:00,
2013-06-15 20:11:00,65.4,55.4,29.96,NW,316,0.0,0.0,70,0.00,CLR,,0.00,WeatherDisplay:10.37,2013-06-16 00:11:00,
2013-06-15 20:16:00,64.7,54.7,29.96,NW,316,0.0,0.0,70,0.00,CLR,,0.00,WeatherDisplay:10.37,2013-06-16 00:16:00,
2013-06-15 20:21:00,64.1,54.5,29.96,NW,316,0.0,0.0,71,0.00,CLR,,0.00,WeatherDisplay:10.37,2013-06-16 00:21:00,
2013-06-15 20:26:00,63.5,54.3,29.96,NW,316,0.0,0.0,72,0.00,CLR,,0.00,WeatherDisplay:10.37,2013-06-16 00:26:00,
2013-06-15 20:31:00,63.0,54.2,29.96,NW,316,0.0,0.0,73,0.00,CLR,,0.00,WeatherDisplay:10.37,2013-06-16 00:31:00,
2013-06-15 20:36:00,62.5,53.7,29.97,NW,316,0.0,0.0,73,0.00,CLR,,0.00,WeatherDisplay:10.37,2013-06-16 00:36:00,
2013-06-15 20:41:00,61.9,53.1,29.96,NW,316,0.0,0.0,73,0.00,CLR,,0.00,WeatherDisplay:10.37,2013-06-16 00:41:00,
2013-06-15 20:46:00,61.5,53.1,29.96,NW,316,0.0,0.0,74,0.00,CLR,,0.00,WeatherDisplay:10.37,2013-06-16 00:46:00,
2013-06-15 20:51:00,61.1,53.1,29.96,NW,316,0.0,0.0,75,0.00,CLR,,0.00,WeatherDisplay:10.37,2013-06-16 00:51:00,
2013-06-15 20:56:00,60.7,52.7,29.97,NW,315,0.0,0.0,75,0.00,CLR,,0.00,WeatherDisplay:10.37,2013-06-16 00:56:00,
2013-06-15 21:01:00,60.5,52.5,29.96,NW,314,0.0,0.0,75,0.00,,,0.00,WeatherDisplay:10.37,2013-06-16 01:01:00,
2013-06-15 21:06:00,60.3,52.7,29.96,NW,316,0.0,0.0,76,0.00,,,0.00,WeatherDisplay:10.37,2013-06-16 01:06:00,
2013-06-15 21:11:00,60.2,53.0,29.96,NW,314,0.0,0.0,77,0.00,,,0.00,WeatherDisplay:10.37,2013-06-16 01:11:00,
2013-06-15 21:16:00,60.0,52.8,29.96,NW,314,0.0,0.0,77,0.00,,,0.00,WeatherDisplay:10.37,2013-06-16 01:16:00,
2013-06-15 21:21:00,59.8,52.9,29.96,NW,315,0.0,0.0,78,0.00,,,0.00,WeatherDisplay:10.37,2013-06-16 01:21:00,
2013-06-15 21:26:00,59.6,53.4,29.97,NW,314,0.0,0.0,80,0.00,,,0.00,WeatherDisplay:10.37,2013-06-16 01:26:00,
2013-06-15 21:31:00,59.4,53.6,29.97,NW,315,0.0,0.0,81,0.00,,,0.00,WeatherDisplay:10.37,2013-06-16 01:31:00,
2013-06-15 21:36:00,59.3,53.5,29.97,NW,314,0.0,0.0,81,0.00,,,0.00,WeatherDisplay:10.37,2013-06-16 01:36:00,
2013-06-15 21:42:00,59.0,53.2,29.97,NW,314,0.0,0.0,81,0.00,,,0.00,WeatherDisplay:10.37,2013-06-16 01:42:00,
2013-06-15 21:47:00,58.8,53.3,29.97,NW,315,0.0,0.0,82,0.00,,,0.00,WeatherDisplay:10.37,2013-06-16 01:47:00,
2013-06-15 21:52:00,58.7,53.2,29.97,NW,315,0.0,0.0,82,0.00,,,0.00,WeatherDisplay:10.37,2013-06-16 01:52:00,
2013-06-15 21:57:00,58.6,53.8,29.97,NW,314,0.0,0.0,84,0.00,,,0.00,WeatherDisplay:10.37,2013-06-16 01:57:00,
2013-06-15 22:02:00,58.5,53.7,29.97,NW,314,0.0,0.0,84,0.00,,,0.00,WeatherDisplay:10.37,2013-06-16 02:02:00,
2013-06-15 22:07:00,58.3,53.5,29.97,NW,314,0.0,0.0,84,0.00,,,0.00,WeatherDisplay:10.37,2013-06-16 02:07:00,
2013-06-15 22:12:00,58.2,53.4,29.96,NW,314,0.0,0.0,84,0.00,,,0.00,WeatherDisplay:10.37,2013-06-16 02:12:00,
2013-06-15 22:17:00,58.1,53.3,29.96,NW,314,0.0,0.0,84,0.00,,,0.00,WeatherDisplay:10.37,2013-06-16 02:17:00,
2013-06-15 22:22:00,58.0,53.2,29.96,NW,315,0.0,0.0,84,0.00,,,0.00,WeatherDisplay:10.37,2013-06-16 02:22:00,
2013-06-15 22:27:00,58.1,53.6,29.96,NW,315,0.0,0.0,85,0.00,,,0.00,WeatherDisplay:10.37,2013-06-16 02:27:00,
2013-06-15 22:32:00,58.0,53.2,29.96,NW,314,0.0,0.0,84,0.00,,,0.00,WeatherDisplay:10.37,2013-06-16 02:32:00,
2013-06-15 22:37:00,58.1,53.6,29.96,NW,315,0.0,0.0,85,0.00,,,0.00,WeatherDisplay:10.37,2013-06-16 02:37:00,
2013-06-15 22:42:00,58.3,53.8,29.96,NW,315,0.0,0.0,85,0.00,,,0.00,WeatherDisplay:10.37,2013-06-16 02:42:00,
2013-06-15 22:47:00,58.5,54.0,29.95,NW,314,0.0,0.0,85,0.00,,,0.00,WeatherDisplay:10.37,2013-06-16 02:47:00,
2013-06-15 22:52:00,58.6,54.1,29.95,NW,315,0.0,0.0,85,0.00,,,0.00,WeatherDisplay:10.37,2013-06-16 02:52:00,
2013-06-15 22:57:00,58.7,54.2,29.95,NW,315,0.0,0.0,85,0.00,,,0.00,WeatherDisplay:10.37,2013-06-16 02:57:00,
2013-06-15 23:02:00,58.6,54.1,29.95,NW,315,0.0,0.0,85,0.00,,,0.00,WeatherDisplay:10.37,2013-06-16 03:02:00,
2013-06-15 23:07:00,58.5,54.0,29.95,NW,315,0.0,0.0,85,0.00,,,0.00,WeatherDisplay:10.37,2013-06-16 03:07:00,
2013-06-15 23:12:00,58.3,53.8,29.95,NW,314,0.0,0.0,85,0.00,,,0.00,WeatherDisplay:10.37,2013-06-16 03:12:00,
2013-06-15 23:17:00,58.2,54.0,29.95,NW,314,0.0,0.0,86,0.00,,,0.00,WeatherDisplay:10.37,2013-06-16 03:17:00,
2013-06-15 23:22:00,58.2,54.0,29.94,NW,314,0.0,0.0,86,0.00,,,0.00,WeatherDisplay:10.37,2013-06-16 03:22:00,
2013-06-15 23:27:00,58.3,54.1,29.94,NW,315,0.0,0.0,86,0.00,,,0.00,WeatherDisplay:10.37,2013-06-16 03:27:00,
2013-06-15 23:32:00,58.5,54.3,29.94,NW,315,0.0,0.0,86,0.00,,,0.00,WeatherDisplay:10.37,2013-06-16 03:32:00,
2013-06-15 23:37:00,58.6,54.4,29.94,NW,315,0.0,0.0,86,0.00,,,0.00,WeatherDisplay:10.37,2013-06-16 03:37:00,
2013-06-15 23:42:00,58.7,54.5,29.94,NW,314,0.0,0.0,86,0.00,,,0.00,WeatherDisplay:10.37,2013-06-16 03:42:00,
2013-06-15 23:47:00,58.9,54.7,29.94,NW,315,0.0,0.0,86,0.00,,,0.00,WeatherDisplay:10.37,2013-06-16 03:47:00,
2013-06-15 23:52:00,59.0,54.8,29.94,NW,315,0.0,0.0,86,0.00,,,0.00,WeatherDisplay:10.37,2013-06-16 03:52:00,
2013-06-15 23:57:00,59.1,54.6,29.94,NW,314,0.0,0.0,85,0.00,,,0.00,WeatherDisplay:10.37,2013-06-16 03:57:00,